Kookyang Express — DSRC7 — position and weather

sailwx.info

Track history (hours):
 
Tides and Currents Weather Stations Pressure Air Temp Water Temp Dewpoint Dewpoint Depression Visibility Wind Speed Wind Dir Waves Ship Positions

Kookyang Express

Last reported at 2018-Jul-31 10:55 UTC. Time now 2018-Aug-20 16:19 UTC.
Position N 34°39' E 139°04'.
Warning: this ship's position is 20 days out of date.

Length 111 m; draft 8.1 m.

Type: Cargo ship. MMSI: 440090000.

Date/timePositionNaut miles runAvg speedWind from/ knotsBaromVisibWave heightAir tempDewpointWater temp
2018-Jul-31 10:55N 34°39' E 139°04'19 8.8
2018-Jul-31 08:43N 34°52' E 139°22'2 7.8
2018-Jul-31 08:26N 34°53' E 139°24'4 8.3
2018-Jul-31 07:59N 34°56' E 139°27'4 8.8
2018-Jul-31 07:30N 34°58' E 139°31'4 8.8
2018-Jul-31 07:00N 35°01' E 139°35'5 9.6
2018-Jul-31 06:30N 35°04' E 139°40'510.1
2018-Jul-31 06:00N 35°08' E 139°44'5 9.3
2018-Jul-31 05:30N 35°12' E 139°46'5 8.7
2018-Jul-31 04:57N 35°17' E 139°45'4 9.3
2018-Jul-31 04:30N 35°20' E 139°42'4 8.7
2018-Jul-31 04:00N 35°25' E 139°43'4 7.0
2018-Jul-31 03:30N 35°25' E 139°47'3 5.1
2018-Jul-31 03:00N 35°23' E 139°49'3 5.3
2018-Jul-31 02:30N 35°21' E 139°51'0 0.1
2018-Jul-31 02:00N 35°21' E 139°51'0 0.0
2018-Jul-31 01:30N 35°21' E 139°51'0 0.0
2018-Jul-31 01:00N 35°21' E 139°51'0 0.0
2018-Jul-31 00:29N 35°21' E 139°51'0 0.0
2018-Jul-31 00:00N 35°21' E 139°51'0 0.0
2018-Jul-30 23:30N 35°21' E 139°51'0 0.0
2018-Jul-30 23:00N 35°21' E 139°51'0 0.0
2018-Jul-30 22:30N 35°21' E 139°51'0 0.0
2018-Jul-30 22:01N 35°21' E 139°51'0 0.0
2018-Jul-30 21:30N 35°21' E 139°51'0 0.1
2018-Jul-30 21:00N 35°21' E 139°51'0 0.1
2018-Jul-30 20:30N 35°21' E 139°51'0 0.0
2018-Jul-30 20:00N 35°21' E 139°51'0 0.1
2018-Jul-30 19:30N 35°21' E 139°51'0 0.1
2018-Jul-30 19:00N 35°21' E 139°51'0 0.1
2018-Jul-30 18:30N 35°21' E 139°51'0 0.1
2018-Jul-30 18:00N 35°21' E 139°51'0 0.0
2018-Jul-30 17:30N 35°21' E 139°51'0 0.0
2018-Jul-30 17:00N 35°21' E 139°51'0 0.0
2018-Jul-30 16:30N 35°21' E 139°51'0 0.0
2018-Jul-30 16:00N 35°21' E 139°51'0 0.1
2018-Jul-30 15:30N 35°21' E 139°51'0 0.1
2018-Jul-30 15:00N 35°21' E 139°51'0 0.0
2018-Jul-30 14:30N 35°21' E 139°51'0 0.0
2018-Jul-30 14:00N 35°21' E 139°51'0 0.0
2018-Jul-30 13:30N 35°21' E 139°51'0 0.0
2018-Jul-30 13:00N 35°21' E 139°51'0 0.1
2018-Jul-30 12:30N 35°21' E 139°51'0 0.1
2018-Jul-30 12:00N 35°21' E 139°51'0 0.0
2018-Jul-30 11:30N 35°21' E 139°51'0 0.0
2018-Jul-30 11:00N 35°21' E 139°51'0 0.0
2018-Jul-30 10:31N 35°21' E 139°51'0 0.0
2018-Jul-30 10:00N 35°21' E 139°51'0 0.0
2018-Jul-30 09:30N 35°21' E 139°51'0 0.0
2018-Jul-30 09:00N 35°21' E 139°51'0 0.0
2018-Jul-30 08:30N 35°21' E 139°51'0 0.0
2018-Jul-30 08:00N 35°21' E 139°51'0 0.0
2018-Jul-30 07:30N 35°21' E 139°51'0 0.0
2018-Jul-30 07:00N 35°21' E 139°51'0 0.0
2018-Jul-30 06:30N 35°21' E 139°51'0 0.0
2018-Jul-30 06:00N 35°21' E 139°51'0 0.0
2018-Jul-30 05:30N 35°21' E 139°51'0 0.0
2018-Jul-30 05:00N 35°21' E 139°51'0 0.0
2018-Jul-30 04:30N 35°21' E 139°51'0 0.0
2018-Jul-30 04:00N 35°21' E 139°51'0 0.0
2018-Jul-30 03:30N 35°21' E 139°51'0 0.1
2018-Jul-30 03:00N 35°21' E 139°51'0 0.1
2018-Jul-30 02:30N 35°21' E 139°51'0 0.0
2018-Jul-30 02:00N 35°21' E 139°51'0 0.0
2018-Jul-30 01:30N 35°21' E 139°51'0 0.0
2018-Jul-30 01:00N 35°21' E 139°51'0 0.0
2018-Jul-30 00:30N 35°21' E 139°51'0 0.0
2018-Jul-30 00:00N 35°21' E 139°51'0 0.0
2018-Jul-29 23:31N 35°21' E 139°51'0 0.0
2018-Jul-29 23:00N 35°21' E 139°51'0 0.0
2018-Jul-29 22:30N 35°21' E 139°51'0 0.0
2018-Jul-29 22:00N 35°21' E 139°51'0 0.0
2018-Jul-29 21:31N 35°21' E 139°51'0 0.0
2018-Jul-29 21:00N 35°21' E 139°51'0 0.0
2018-Jul-29 20:30N 35°21' E 139°51'0 0.0
2018-Jul-29 20:00N 35°21' E 139°51'0 0.0
2018-Jul-29 19:30N 35°21' E 139°51'0 0.0
2018-Jul-29 19:00N 35°21' E 139°51'0 0.0
2018-Jul-29 18:30N 35°21' E 139°51'0 0.0
2018-Jul-29 18:00N 35°21' E 139°51'0 0.0
2018-Jul-29 17:30N 35°21' E 139°51'0 0.0
2018-Jul-29 17:00N 35°21' E 139°51'0 0.0
2018-Jul-29 16:30N 35°21' E 139°51'0 0.0
2018-Jul-29 16:00N 35°21' E 139°51'0 0.0
2018-Jul-29 15:30N 35°21' E 139°51'0 0.0
2018-Jul-29 15:00N 35°21' E 139°51'0 0.1
2018-Jul-29 14:30N 35°21' E 139°51'0 0.0
2018-Jul-29 13:30N 35°21' E 139°51'0 0.0
2018-Jul-29 13:00N 35°21' E 139°51'0 0.0
2018-Jul-29 12:30N 35°21' E 139°51'0 0.0
2018-Jul-29 12:00N 35°21' E 139°51'0 0.0
2018-Jul-29 11:30N 35°21' E 139°51'0 0.0
2018-Jul-29 11:00N 35°21' E 139°51'0 0.0
2018-Jul-29 10:30N 35°21' E 139°51'0 0.0
2018-Jul-29 10:00N 35°21' E 139°51'0 0.0
2018-Jul-29 09:30N 35°21' E 139°51'0 0.0
2018-Jul-29 09:00N 35°21' E 139°51'0 0.0
2018-Jul-29 08:30N 35°21' E 139°51'0 0.0
2018-Jul-29 08:01N 35°21' E 139°51'0 0.0
2018-Jul-29 07:30N 35°21' E 139°51'0 0.0
2018-Jul-29 07:00N 35°21' E 139°51'0 0.0
2018-Jul-29 06:31N 35°21' E 139°51'0 0.0
2018-Jul-29 06:00N 35°21' E 139°51'0 0.0
2018-Jul-29 05:30N 35°21' E 139°51'0 0.0
2018-Jul-29 05:00N 35°21' E 139°51'0 0.0
2018-Jul-29 04:30N 35°21' E 139°51'0 0.0
2018-Jul-29 04:00N 35°21' E 139°51'0 0.1
2018-Jul-29 03:31N 35°21' E 139°51'0 0.1
2018-Jul-29 03:00N 35°21' E 139°51'0 0.0
2018-Jul-29 02:30N 35°21' E 139°51'0 0.0
2018-Jul-29 02:01N 35°21' E 139°51'0 0.0
2018-Jul-29 01:30N 35°21' E 139°51'0 0.0
2018-Jul-29 01:00N 35°21' E 139°51'0 0.0
2018-Jul-29 00:30N 35°21' E 139°51'0 0.0
2018-Jul-29 00:00N 35°21' E 139°51'0 0.0
2018-Jul-28 23:30N 35°21' E 139°51'0 0.0
2018-Jul-28 23:00N 35°21' E 139°51'0 0.0
2018-Jul-28 22:30N 35°21' E 139°51'0 0.0
2018-Jul-28 22:00N 35°21' E 139°51'0 0.0
2018-Jul-28 21:30N 35°21' E 139°51'0 0.0
2018-Jul-28 21:00N 35°21' E 139°51'0 0.1
2018-Jul-28 20:30N 35°21' E 139°51'0 0.1
2018-Jul-28 20:00N 35°21' E 139°51'0 0.0
2018-Jul-28 19:30N 35°21' E 139°51'0 0.0
2018-Jul-28 19:00N 35°21' E 139°51'0 0.0
2018-Jul-28 18:30N 35°21' E 139°51'0 0.0
2018-Jul-28 18:00N 35°21' E 139°51'0 0.0
2018-Jul-28 17:30N 35°21' E 139°51'0 0.0
2018-Jul-28 17:00N 35°21' E 139°51'0 0.0
2018-Jul-28 16:30N 35°21' E 139°51'0 0.0
2018-Jul-28 16:00N 35°21' E 139°51'0 0.0
2018-Jul-28 15:30N 35°21' E 139°51'0 0.0
2018-Jul-28 15:01N 35°21' E 139°51'0 0.0
2018-Jul-28 14:30N 35°21' E 139°51'0 0.0
2018-Jul-28 14:00N 35°21' E 139°51'0 0.0
2018-Jul-28 13:30N 35°21' E 139°51'0 0.1
2018-Jul-28 13:00N 35°21' E 139°51'0 0.0
2018-Jul-28 12:31N 35°21' E 139°51'0 0.1
2018-Jul-28 12:00N 35°21' E 139°51'0 0.0
2018-Jul-28 11:30N 35°21' E 139°51'0 0.0
2018-Jul-28 11:00N 35°21' E 139°51'0 0.0
2018-Jul-28 10:30N 35°21' E 139°51'0 0.0
2018-Jul-28 10:01N 35°21' E 139°51'0 0.0
2018-Jul-28 09:30N 35°21' E 139°51'0 0.0
2018-Jul-28 09:01N 35°21' E 139°51'0 0.0
2018-Jul-28 08:30N 35°21' E 139°51'0 0.0
2018-Jul-28 08:00N 35°21' E 139°51'0 0.0
2018-Jul-28 07:30N 35°21' E 139°51'0 0.0
2018-Jul-28 07:00N 35°21' E 139°51'0 0.0
2018-Jul-28 06:30N 35°21' E 139°51'0 0.0
2018-Jul-28 06:00N 35°21' E 139°51'0 0.0
2018-Jul-28 05:30N 35°21' E 139°51'0 0.0
2018-Jul-28 05:00N 35°21' E 139°51'0 0.0
2018-Jul-28 04:30N 35°21' E 139°51'0 0.0
2018-Jul-28 04:00N 35°21' E 139°51'0 0.1
2018-Jul-28 03:30N 35°21' E 139°51'0 0.1
2018-Jul-28 03:00N 35°21' E 139°51'0 0.0
2018-Jul-28 02:30N 35°21' E 139°51'0 0.0
2018-Jul-28 02:00N 35°21' E 139°51'0 0.0
2018-Jul-28 01:30N 35°21' E 139°51'0 0.0
2018-Jul-28 01:00N 35°21' E 139°51'0 0.0
2018-Jul-28 00:30N 35°21' E 139°51'0 0.0
2018-Jul-28 00:00N 35°21' E 139°51'0 0.0
2018-Jul-27 23:30N 35°21' E 139°51'0 0.0
2018-Jul-27 23:00N 35°21' E 139°51'0 0.0
2018-Jul-27 22:30N 35°21' E 139°51'0 0.0
2018-Jul-27 22:00N 35°21' E 139°51'0 0.0
2018-Jul-27 21:30N 35°21' E 139°51'0 0.0
2018-Jul-27 21:00N 35°21' E 139°51'0 0.0
2018-Jul-27 20:30N 35°21' E 139°51'0 0.0
2018-Jul-27 20:00N 35°21' E 139°51'0 0.0
2018-Jul-27 19:30N 35°21' E 139°51'0 0.0
2018-Jul-27 19:00N 35°21' E 139°51'0 0.0
2018-Jul-27 18:30N 35°21' E 139°51'0 0.0
2018-Jul-27 18:00N 35°21' E 139°51'0 0.0
2018-Jul-27 17:30N 35°21' E 139°51'0 0.0
2018-Jul-27 17:00N 35°21' E 139°51'0 0.0
2018-Jul-27 16:30N 35°21' E 139°51'0 0.0
2018-Jul-27 16:00N 35°21' E 139°51'0 0.0
2018-Jul-27 15:30N 35°21' E 139°51'0 0.0
2018-Jul-27 15:00N 35°21' E 139°51'0 0.0
2018-Jul-27 14:30N 35°21' E 139°51'0 0.0
2018-Jul-27 14:00N 35°21' E 139°51'0 0.0
2018-Jul-27 13:30N 35°21' E 139°51'0 0.1
2018-Jul-27 13:00N 35°21' E 139°51'0 0.1
2018-Jul-27 12:30N 35°21' E 139°51'0 0.0
2018-Jul-27 12:00N 35°21' E 139°51'0 0.0
2018-Jul-27 11:30N 35°21' E 139°51'0 0.0
2018-Jul-27 11:00N 35°21' E 139°51'0 0.0
2018-Jul-27 10:30N 35°21' E 139°51'0 0.0
2018-Jul-27 10:00N 35°21' E 139°51'0 0.0
2018-Jul-27 09:30N 35°21' E 139°51'0 0.0
2018-Jul-27 09:01N 35°21' E 139°51'0 0.0
2018-Jul-27 08:30N 35°21' E 139°51'0 0.0
2018-Jul-27 08:00N 35°21' E 139°51'0 0.0
2018-Jul-27 07:30N 35°21' E 139°51'0 0.0
2018-Jul-27 07:00N 35°21' E 139°51'0 0.0
2018-Jul-27 06:30N 35°21' E 139°51'0 0.0
2018-Jul-27 06:01N 35°21' E 139°51'0 0.0
2018-Jul-27 05:30N 35°21' E 139°51'0 0.0
2018-Jul-27 05:00N 35°21' E 139°51'0 0.0
2018-Jul-27 04:30N 35°21' E 139°51'0 0.0
2018-Jul-27 04:00N 35°21' E 139°51'0 0.1
2018-Jul-27 03:30N 35°21' E 139°51'0 0.1
2018-Jul-27 03:00N 35°21' E 139°51'0 0.0
2018-Jul-27 02:30N 35°21' E 139°51'0 0.0
2018-Jul-27 02:00N 35°21' E 139°51'0 0.0
2018-Jul-27 01:30N 35°21' E 139°51'0 0.0
2018-Jul-27 01:00N 35°21' E 139°51'0 0.0
2018-Jul-27 00:30N 35°21' E 139°51'0 0.0
2018-Jul-27 00:00N 35°21' E 139°51'0 0.0
2018-Jul-26 23:30N 35°21' E 139°51'0 0.0
2018-Jul-26 23:00N 35°21' E 139°51'0 0.0
2018-Jul-26 22:30N 35°21' E 139°51'0 0.0
2018-Jul-26 22:00N 35°21' E 139°51'0 0.0
2018-Jul-26 21:30N 35°21' E 139°51'0 0.0
2018-Jul-26 21:00N 35°21' E 139°51'0 0.0
2018-Jul-26 20:30N 35°21' E 139°51'0 0.0
2018-Jul-26 20:00N 35°21' E 139°51'0 0.0
2018-Jul-26 19:31N 35°21' E 139°51'0 0.0
2018-Jul-26 19:01N 35°21' E 139°51'0 0.0
2018-Jul-26 18:30N 35°21' E 139°51'0 0.0
2018-Jul-26 18:00N 35°21' E 139°51'0 0.0
2018-Jul-26 17:30N 35°21' E 139°51'0 0.0
2018-Jul-26 17:00N 35°21' E 139°51'0 0.0
2018-Jul-26 16:30N 35°21' E 139°51'0 0.0
2018-Jul-26 16:00N 35°21' E 139°51'0 0.0
2018-Jul-26 15:30N 35°21' E 139°51'0 0.1
2018-Jul-26 15:00N 35°21' E 139°51'0 0.1
2018-Jul-26 14:30N 35°21' E 139°51'0 0.0
2018-Jul-26 14:00N 35°21' E 139°51'0 0.0
2018-Jul-26 13:30N 35°21' E 139°51'0 0.1
2018-Jul-26 13:00N 35°21' E 139°51'0 0.1
2018-Jul-26 12:30N 35°21' E 139°51'0 0.0
2018-Jul-26 12:00N 35°21' E 139°51'0 0.0
2018-Jul-26 11:30N 35°21' E 139°51'0 0.0
2018-Jul-26 11:00N 35°21' E 139°51'0 0.0
2018-Jul-26 10:30N 35°21' E 139°51'0 0.0
2018-Jul-26 10:01N 35°21' E 139°51'0 0.0
2018-Jul-26 09:30N 35°21' E 139°51'0 0.0
2018-Jul-26 09:00N 35°21' E 139°51'0 0.0
2018-Jul-26 08:30N 35°21' E 139°51'0 0.0
2018-Jul-26 08:00N 35°21' E 139°51'0 0.0
2018-Jul-26 07:30N 35°21' E 139°51'0 0.0
2018-Jul-26 07:00N 35°21' E 139°51'0 0.1
2018-Jul-26 06:30N 35°21' E 139°51'0 0.1
2018-Jul-26 06:00N 35°21' E 139°51'0 0.0
2018-Jul-26 05:30N 35°21' E 139°51'0 0.0
2018-Jul-26 05:00N 35°21' E 139°51'0 0.0
2018-Jul-26 04:30N 35°21' E 139°51'0 0.0
2018-Jul-26 04:00N 35°21' E 139°51'0 0.0
2018-Jul-26 03:30N 35°21' E 139°51'0 0.0
2018-Jul-26 03:00N 35°21' E 139°51'0 0.0
2018-Jul-26 02:30N 35°21' E 139°51'0 0.0
2018-Jul-26 02:00N 35°21' E 139°51'0 0.0
2018-Jul-26 01:30N 35°21' E 139°51'0 0.0
2018-Jul-26 01:00N 35°21' E 139°51'0 0.1
2018-Jul-26 00:30N 35°21' E 139°51'0 0.1
2018-Jul-26 00:00N 35°21' E 139°51'0 0.0
2018-Jul-25 23:30N 35°21' E 139°51'0 0.0
2018-Jul-25 23:00N 35°21' E 139°51'0 0.0
2018-Jul-25 22:30N 35°21' E 139°51'0 0.0
2018-Jul-25 22:00N 35°21' E 139°51'0 0.0
2018-Jul-25 21:30N 35°21' E 139°51'0 0.0
2018-Jul-25 21:00N 35°21' E 139°51'0 0.0
2018-Jul-25 20:31N 35°21' E 139°51'0 0.0
2018-Jul-25 20:00N 35°21' E 139°51'0 0.0
2018-Jul-25 19:30N 35°21' E 139°51'0 0.0
2018-Jul-25 19:00N 35°21' E 139°51'0 0.0
2018-Jul-25 18:30N 35°21' E 139°51'0 0.0
2018-Jul-25 18:00N 35°21' E 139°51'0 0.0
2018-Jul-25 17:30N 35°21' E 139°51'0 0.0
2018-Jul-25 17:00N 35°21' E 139°51'0 0.0
2018-Jul-25 16:30N 35°21' E 139°51'0 0.0
2018-Jul-25 16:00N 35°21' E 139°51'0 0.0
2018-Jul-25 15:30N 35°21' E 139°51'0 0.1
2018-Jul-25 15:00N 35°21' E 139°51'0 0.1
2018-Jul-25 14:30N 35°21' E 139°51'0 0.0
2018-Jul-25 14:01N 35°21' E 139°51'0 0.0
2018-Jul-25 13:30N 35°21' E 139°51'0 0.1
2018-Jul-25 13:00N 35°21' E 139°51'0 0.1
2018-Jul-25 12:30N 35°21' E 139°51'0 0.0
2018-Jul-25 12:00N 35°21' E 139°51'0 0.0
2018-Jul-25 11:30N 35°21' E 139°51'0 0.0
2018-Jul-25 11:00N 35°21' E 139°51'0 0.0
2018-Jul-25 10:30N 35°21' E 139°51'0 0.0
2018-Jul-25 10:00N 35°21' E 139°51'0 0.0
2018-Jul-25 09:30N 35°21' E 139°51'0 0.0
2018-Jul-25 09:00N 35°21' E 139°51'0 0.0
2018-Jul-25 08:30N 35°21' E 139°51'0 0.0
2018-Jul-25 08:00N 35°21' E 139°51'0 0.0
2018-Jul-25 07:31N 35°21' E 139°51'0 0.0
2018-Jul-25 07:00N 35°21' E 139°51'0 0.0
2018-Jul-25 06:30N 35°21' E 139°51'0 0.0
2018-Jul-25 06:00N 35°21' E 139°51'0 0.0
2018-Jul-25 05:30N 35°21' E 139°51'0 0.0
2018-Jul-25 05:00N 35°21' E 139°51'0 0.0
2018-Jul-25 04:30N 35°21' E 139°51'0 0.0
2018-Jul-25 04:00N 35°21' E 139°51'0 0.1
2018-Jul-25 03:30N 35°21' E 139°51'0 0.1
2018-Jul-25 03:01N 35°21' E 139°51'0 0.0
2018-Jul-25 02:30N 35°21' E 139°51'0 0.0
2018-Jul-25 02:00N 35°21' E 139°51'0 0.0
2018-Jul-25 01:30N 35°21' E 139°51'0 0.0
2018-Jul-25 01:00N 35°21' E 139°51'0 0.1
2018-Jul-25 00:31N 35°21' E 139°51'0 0.1
2018-Jul-25 00:00N 35°21' E 139°51'0 0.0
2018-Jul-24 23:30N 35°21' E 139°51'0 0.0
2018-Jul-24 23:00N 35°21' E 139°51'0 0.0
2018-Jul-24 22:30N 35°21' E 139°51'0 0.0
2018-Jul-24 22:00N 35°21' E 139°51'0 0.0
2018-Jul-24 21:30N 35°21' E 139°51'0 0.0
2018-Jul-24 21:00N 35°21' E 139°51'0 0.0
2018-Jul-24 20:30N 35°21' E 139°51'0 0.0
2018-Jul-24 20:00N 35°21' E 139°51'0 0.0
2018-Jul-24 19:30N 35°21' E 139°51'0 0.0
2018-Jul-24 19:00N 35°21' E 139°51'0 0.0
2018-Jul-24 18:30N 35°21' E 139°51'0 0.0
2018-Jul-24 18:00N 35°21' E 139°51'0 0.0
2018-Jul-24 17:30N 35°21' E 139°51'0 0.0
2018-Jul-24 17:00N 35°21' E 139°51'0 0.0
2018-Jul-24 16:31N 35°21' E 139°51'0 0.0
2018-Jul-24 16:00N 35°21' E 139°51'0 0.0
2018-Jul-24 15:30N 35°21' E 139°51'0 0.0
2018-Jul-24 14:31N 35°21' E 139°51'0 0.0
2018-Jul-24 14:00N 35°21' E 139°51'0 0.0
2018-Jul-24 13:30N 35°21' E 139°51'0 0.1
2018-Jul-24 13:00N 35°21' E 139°51'0 0.1
2018-Jul-24 12:30N 35°21' E 139°51'0 0.0
2018-Jul-24 12:00N 35°21' E 139°51'0 0.0
2018-Jul-24 11:30N 35°21' E 139°51'0 0.0
2018-Jul-24 11:01N 35°21' E 139°51'0 0.0
2018-Jul-24 10:30N 35°21' E 139°51'0 0.0
2018-Jul-24 10:00N 35°21' E 139°51'0 0.0
2018-Jul-24 09:30N 35°21' E 139°51'0 0.0
2018-Jul-24 09:01N 35°21' E 139°51'0 0.0
2018-Jul-24 08:30N 35°21' E 139°51'0 0.0
2018-Jul-24 08:00N 35°21' E 139°51'0 0.0
2018-Jul-24 07:30N 35°21' E 139°51'0 0.0
2018-Jul-24 07:00N 35°21' E 139°51'0 0.0
2018-Jul-24 06:30N 35°21' E 139°51'0 0.0
2018-Jul-24 06:00N 35°21' E 139°51'0 0.0
2018-Jul-24 05:30N 35°21' E 139°51'0 0.0
2018-Jul-24 05:01N 35°21' E 139°51'0 0.0
2018-Jul-24 04:30N 35°21' E 139°51'0 0.1
2018-Jul-24 04:00N 35°21' E 139°51'0 0.0
2018-Jul-24 03:30N 35°21' E 139°51'0 0.1
2018-Jul-24 03:00N 35°21' E 139°51'0 0.0
2018-Jul-24 02:30N 35°21' E 139°51'0 0.0
2018-Jul-24 02:00N 35°21' E 139°51'0 0.0
2018-Jul-24 01:30N 35°21' E 139°51'0 0.0
2018-Jul-24 01:00N 35°21' E 139°51'0 0.0
2018-Jul-24 00:30N 35°21' E 139°51'0 0.0
2018-Jul-24 00:00N 35°21' E 139°51'0 0.0
2018-Jul-23 23:30N 35°21' E 139°51'0 0.0
2018-Jul-23 23:01N 35°21' E 139°51'0 0.0
2018-Jul-23 22:30N 35°21' E 139°51'0 0.0
2018-Jul-23 22:00N 35°21' E 139°51'0 0.0
2018-Jul-23 21:30N 35°21' E 139°51'0 0.0
2018-Jul-23 21:00N 35°21' E 139°51'0 0.0
2018-Jul-23 20:00N 35°21' E 139°51'0 0.0
2018-Jul-23 19:30N 35°21' E 139°51'0 0.0
2018-Jul-23 19:00N 35°21' E 139°51'0 0.0
2018-Jul-23 18:30N 35°21' E 139°51'0 0.0
2018-Jul-23 18:00N 35°21' E 139°51'0 0.0
2018-Jul-23 17:30N 35°21' E 139°51'0 0.0
2018-Jul-23 17:00N 35°21' E 139°51'0 0.0
2018-Jul-23 16:30N 35°21' E 139°51'0 0.0
2018-Jul-23 16:00N 35°21' E 139°51'0 0.0
2018-Jul-23 15:30N 35°21' E 139°51'0 0.1
2018-Jul-23 15:00N 35°21' E 139°51'0 0.1
2018-Jul-23 14:30N 35°21' E 139°51'0 0.0
2018-Jul-23 14:00N 35°21' E 139°51'0 0.0
2018-Jul-23 13:30N 35°21' E 139°51'0 0.1
2018-Jul-23 13:00N 35°21' E 139°51'0 0.1
2018-Jul-23 12:29N 35°21' E 139°51'0 0.0
2018-Jul-23 12:00N 35°21' E 139°51'0 0.0
2018-Jul-23 11:30N 35°21' E 139°51'0 0.0
2018-Jul-23 11:00N 35°21' E 139°51'0 0.0
2018-Jul-23 10:30N 35°21' E 139°51'0 0.0
2018-Jul-23 10:01N 35°21' E 139°51'0 0.0
2018-Jul-23 09:30N 35°21' E 139°51'0 0.0
2018-Jul-23 09:00N 35°21' E 139°51'0 0.0
2018-Jul-23 08:31N 35°21' E 139°51'0 0.0
2018-Jul-23 08:00N 35°21' E 139°51'0 0.0
2018-Jul-23 07:30N 35°21' E 139°51'0 0.0
2018-Jul-23 07:00N 35°21' E 139°51'0 0.1
2018-Jul-23 06:30N 35°21' E 139°51'0 0.1
2018-Jul-23 06:00N 35°21' E 139°51'0 0.0
2018-Jul-23 05:30N 35°21' E 139°51'0 0.0
2018-Jul-23 05:00N 35°21' E 139°51'0 0.0
2018-Jul-23 04:30N 35°21' E 139°51'0 0.1
2018-Jul-23 04:00N 35°21' E 139°51'0 0.1
2018-Jul-23 03:30N 35°21' E 139°51'0 0.0
2018-Jul-23 03:00N 35°21' E 139°51'0 0.0
2018-Jul-23 02:31N 35°21' E 139°51'0 0.0
2018-Jul-23 02:00N 35°21' E 139°51'0 0.0
2018-Jul-23 01:30N 35°21' E 139°51'0 0.0
2018-Jul-23 01:00N 35°21' E 139°51'0 0.0
2018-Jul-23 00:30N 35°21' E 139°51'0 0.0
2018-Jul-23 00:00N 35°21' E 139°51'0 0.0
2018-Jul-22 23:30N 35°21' E 139°51'0 0.0
2018-Jul-22 23:00N 35°21' E 139°51'0 0.0
2018-Jul-22 22:30N 35°21' E 139°51'0 0.9
2018-Jul-22 22:00N 35°22' E 139°51'0 0.1
2018-Jul-22 21:30N 35°22' E 139°51'0 0.0
2018-Jul-22 21:00N 35°22' E 139°51'0 0.0
2018-Jul-22 20:30N 35°22' E 139°51'0 0.0
2018-Jul-22 20:00N 35°22' E 139°51'0 0.0
2018-Jul-22 19:30N 35°22' E 139°51'0 0.0
2018-Jul-22 19:00N 35°22' E 139°51'0 0.0
2018-Jul-22 18:30N 35°22' E 139°51'0 0.0
2018-Jul-22 18:00N 35°22' E 139°51'0 0.0
2018-Jul-22 17:30N 35°22' E 139°51'0 0.0
2018-Jul-22 17:00N 35°22' E 139°51'0 0.0
2018-Jul-22 16:30N 35°22' E 139°51'0 0.0
2018-Jul-22 16:00N 35°22' E 139°51'0 0.0
2018-Jul-22 15:00N 35°22' E 139°51'0 0.0
2018-Jul-22 14:30N 35°22' E 139°51'0 0.0
2018-Jul-22 14:00N 35°22' E 139°51'0 0.0
2018-Jul-22 13:30N 35°22' E 139°51'0 0.0
2018-Jul-22 13:00N 35°22' E 139°51'0 0.0
2018-Jul-22 12:30N 35°22' E 139°51'0 0.0
2018-Jul-22 11:51N 35°22' E 139°51'0 0.0
2018-Jul-22 11:30N 35°22' E 139°51'0 0.0
2018-Jul-22 11:00N 35°22' E 139°51'0 0.0
2018-Jul-22 10:30N 35°22' E 139°51'0 0.0
2018-Jul-22 10:00N 35°22' E 139°51'0 0.0
2018-Jul-22 09:29N 35°22' E 139°51'0 0.0
2018-Jul-22 08:59N 35°22' E 139°51'0 0.0
2018-Jul-22 08:26N 35°22' E 139°51'0 0.0
2018-Jul-22 07:56N 35°22' E 139°51'0 0.0
2018-Jul-22 07:29N 35°22' E 139°51'0 0.0
2018-Jul-22 06:59N 35°22' E 139°51'0 0.0
2018-Jul-22 06:29N 35°22' E 139°51'0 0.0
2018-Jul-22 05:59N 35°22' E 139°51'0 0.0
2018-Jul-22 05:29N 35°22' E 139°51'0 0.0
2018-Jul-22 04:59N 35°22' E 139°51'0 0.0
2018-Jul-22 04:29N 35°22' E 139°51'0 0.0
2018-Jul-22 03:59N 35°22' E 139°51'0 0.0
2018-Jul-22 03:29N 35°22' E 139°51'0 0.0
2018-Jul-22 02:59N 35°22' E 139°51'0 0.0
2018-Jul-22 02:29N 35°22' E 139°51'0 0.0
2018-Jul-22 01:59N 35°22' E 139°51'0 0.0
2018-Jul-22 01:29N 35°22' E 139°51'0 0.0
2018-Jul-22 00:56N 35°22' E 139°51'0 0.0
2018-Jul-22 00:29N 35°22' E 139°51'0 0.0
2018-Jul-21 23:59N 35°22' E 139°51'0 0.0
2018-Jul-21 23:29N 35°22' E 139°51'0 0.0
2018-Jul-21 22:59N 35°22' E 139°51'0 0.0
2018-Jul-21 22:29N 35°22' E 139°51'0 0.0
2018-Jul-21 21:59N 35°22' E 139°51'0 0.0
2018-Jul-21 21:23N 35°22' E 139°51'0 0.0
2018-Jul-21 20:59N 35°22' E 139°51'0 0.0
2018-Jul-21 20:29N 35°22' E 139°51'0 0.0
2018-Jul-21 19:59N 35°22' E 139°51'0 0.0
2018-Jul-21 19:29N 35°22' E 139°51'0 0.0
2018-Jul-21 18:59N 35°22' E 139°51'0 0.0
2018-Jul-21 18:29N 35°22' E 139°51'0 0.0
2018-Jul-21 17:59N 35°22' E 139°51'0 0.0
2018-Jul-21 17:29N 35°22' E 139°51'0 0.0
2018-Jul-21 16:59N 35°22' E 139°51'0 0.0
2018-Jul-21 16:29N 35°22' E 139°51'0 0.0
2018-Jul-21 15:59N 35°22' E 139°51'0 0.0
2018-Jul-21 15:29N 35°22' E 139°51'0 0.0
2018-Jul-21 14:59N 35°22' E 139°51'0 0.0
2018-Jul-21 14:29N 35°22' E 139°51'0 0.0
2018-Jul-21 13:29N 35°22' E 139°51'0 0.0
2018-Jul-21 12:59N 35°22' E 139°51'0 0.0
2018-Jul-21 12:29N 35°22' E 139°51'0 0.0
2018-Jul-21 11:59N 35°22' E 139°51'0 0.0
2018-Jul-21 11:29N 35°22' E 139°51'0 0.0
2018-Jul-21 10:59N 35°22' E 139°51'  
Track history (hours):
 
Tides and Currents Weather Stations Pressure Air Temp Water Temp Dewpoint Dewpoint Depression Visibility Wind Speed Wind Dir Waves Ship Positions

Kookyang Express

Last reported at 2018-Jul-31 10:55 UTC. Time now 2018-Aug-20 16:19 UTC.
Position N 34°39' E 139°04'.
Warning: this ship's position is 20 days out of date.

Length 111 m; draft 8.1 m.

Type: Cargo ship. MMSI: 440090000.

Date/timePositionNaut miles runAvg speedWind from/ knotsBaromVisibWave heightAir tempDewpointWater temp
2018-Jul-31 10:55N 34°39' E 139°04'19 8.8
2018-Jul-31 08:43N 34°52' E 139°22'2 7.8
2018-Jul-31 08:26N 34°53' E 139°24'4 8.3
2018-Jul-31 07:59N 34°56' E 139°27'4 8.8
2018-Jul-31 07:30N 34°58' E 139°31'4 8.8
2018-Jul-31 07:00N 35°01' E 139°35'5 9.6
2018-Jul-31 06:30N 35°04' E 139°40'510.1
2018-Jul-31 06:00N 35°08' E 139°44'5 9.3
2018-Jul-31 05:30N 35°12' E 139°46'5 8.7
2018-Jul-31 04:57N 35°17' E 139°45'4 9.3
2018-Jul-31 04:30N 35°20' E 139°42'4 8.7
2018-Jul-31 04:00N 35°25' E 139°43'4 7.0
2018-Jul-31 03:30N 35°25' E 139°47'3 5.1
2018-Jul-31 03:00N 35°23' E 139°49'3 5.3
2018-Jul-31 02:30N 35°21' E 139°51'0 0.1
2018-Jul-31 02:00N 35°21' E 139°51'0 0.0
2018-Jul-31 01:30N 35°21' E 139°51'0 0.0
2018-Jul-31 01:00N 35°21' E 139°51'0 0.0
2018-Jul-31 00:29N 35°21' E 139°51'0 0.0
2018-Jul-31 00:00N 35°21' E 139°51'0 0.0
2018-Jul-30 23:30N 35°21' E 139°51'0 0.0
2018-Jul-30 23:00N 35°21' E 139°51'0 0.0
2018-Jul-30 22:30N 35°21' E 139°51'0 0.0
2018-Jul-30 22:01N 35°21' E 139°51'0 0.0
2018-Jul-30 21:30N 35°21' E 139°51'0 0.1
2018-Jul-30 21:00N 35°21' E 139°51'0 0.1
2018-Jul-30 20:30N 35°21' E 139°51'0 0.0
2018-Jul-30 20:00N 35°21' E 139°51'0 0.1
2018-Jul-30 19:30N 35°21' E 139°51'0 0.1
2018-Jul-30 19:00N 35°21' E 139°51'0 0.1
2018-Jul-30 18:30N 35°21' E 139°51'0 0.1
2018-Jul-30 18:00N 35°21' E 139°51'0 0.0
2018-Jul-30 17:30N 35°21' E 139°51'0 0.0
2018-Jul-30 17:00N 35°21' E 139°51'0 0.0
2018-Jul-30 16:30N 35°21' E 139°51'0 0.0
2018-Jul-30 16:00N 35°21' E 139°51'0 0.1
2018-Jul-30 15:30N 35°21' E 139°51'0 0.1
2018-Jul-30 15:00N 35°21' E 139°51'0 0.0
2018-Jul-30 14:30N 35°21' E 139°51'0 0.0
2018-Jul-30 14:00N 35°21' E 139°51'0 0.0
2018-Jul-30 13:30N 35°21' E 139°51'0 0.0
2018-Jul-30 13:00N 35°21' E 139°51'0 0.1
2018-Jul-30 12:30N 35°21' E 139°51'0 0.1
2018-Jul-30 12:00N 35°21' E 139°51'0 0.0
2018-Jul-30 11:30N 35°21' E 139°51'0 0.0
2018-Jul-30 11:00N 35°21' E 139°51'0 0.0
2018-Jul-30 10:31N 35°21' E 139°51'0 0.0
2018-Jul-30 10:00N 35°21' E 139°51'0 0.0
2018-Jul-30 09:30N 35°21' E 139°51'0 0.0
2018-Jul-30 09:00N 35°21' E 139°51'0 0.0
2018-Jul-30 08:30N 35°21' E 139°51'0 0.0
2018-Jul-30 08:00N 35°21' E 139°51'0 0.0
2018-Jul-30 07:30N 35°21' E 139°51'0 0.0
2018-Jul-30 07:00N 35°21' E 139°51'0 0.0
2018-Jul-30 06:30N 35°21' E 139°51'0 0.0
2018-Jul-30 06:00N 35°21' E 139°51'0 0.0
2018-Jul-30 05:30N 35°21' E 139°51'0 0.0
2018-Jul-30 05:00N 35°21' E 139°51'0 0.0
2018-Jul-30 04:30N 35°21' E 139°51'0 0.0
2018-Jul-30 04:00N 35°21' E 139°51'0 0.0
2018-Jul-30 03:30N 35°21' E 139°51'0 0.1
2018-Jul-30 03:00N 35°21' E 139°51'0 0.1
2018-Jul-30 02:30N 35°21' E 139°51'0 0.0
2018-Jul-30 02:00N 35°21' E 139°51'0 0.0
2018-Jul-30 01:30N 35°21' E 139°51'0 0.0
2018-Jul-30 01:00N 35°21' E 139°51'0 0.0
2018-Jul-30 00:30N 35°21' E 139°51'0 0.0
2018-Jul-30 00:00N 35°21' E 139°51'0 0.0
2018-Jul-29 23:31N 35°21' E 139°51'0 0.0
2018-Jul-29 23:00N 35°21' E 139°51'0 0.0
2018-Jul-29 22:30N 35°21' E 139°51'0 0.0
2018-Jul-29 22:00N 35°21' E 139°51'0 0.0
2018-Jul-29 21:31N 35°21' E 139°51'0 0.0
2018-Jul-29 21:00N 35°21' E 139°51'0 0.0
2018-Jul-29 20:30N 35°21' E 139°51'0 0.0
2018-Jul-29 20:00N 35°21' E 139°51'0 0.0
2018-Jul-29 19:30N 35°21' E 139°51'0 0.0
2018-Jul-29 19:00N 35°21' E 139°51'0 0.0
2018-Jul-29 18:30N 35°21' E 139°51'0 0.0
2018-Jul-29 18:00N 35°21' E 139°51'0 0.0
2018-Jul-29 17:30N 35°21' E 139°51'0 0.0
2018-Jul-29 17:00N 35°21' E 139°51'0 0.0
2018-Jul-29 16:30N 35°21' E 139°51'0 0.0
2018-Jul-29 16:00N 35°21' E 139°51'0 0.0
2018-Jul-29 15:30N 35°21' E 139°51'0 0.0
2018-Jul-29 15:00N 35°21' E 139°51'0 0.1
2018-Jul-29 14:30N 35°21' E 139°51'0 0.0
2018-Jul-29 13:30N 35°21' E 139°51'0 0.0
2018-Jul-29 13:00N 35°21' E 139°51'0 0.0
2018-Jul-29 12:30N 35°21' E 139°51'0 0.0
2018-Jul-29 12:00N 35°21' E 139°51'0 0.0
2018-Jul-29 11:30N 35°21' E 139°51'0 0.0
2018-Jul-29 11:00N 35°21' E 139°51'0 0.0
2018-Jul-29 10:30N 35°21' E 139°51'0 0.0
2018-Jul-29 10:00N 35°21' E 139°51'0 0.0
2018-Jul-29 09:30N 35°21' E 139°51'0 0.0
2018-Jul-29 09:00N 35°21' E 139°51'0 0.0
2018-Jul-29 08:30N 35°21' E 139°51'0 0.0
2018-Jul-29 08:01N 35°21' E 139°51'0 0.0
2018-Jul-29 07:30N 35°21' E 139°51'0 0.0
2018-Jul-29 07:00N 35°21' E 139°51'0 0.0
2018-Jul-29 06:31N 35°21' E 139°51'0 0.0
2018-Jul-29 06:00N 35°21' E 139°51'0 0.0
2018-Jul-29 05:30N 35°21' E 139°51'0 0.0
2018-Jul-29 05:00N 35°21' E 139°51'0 0.0
2018-Jul-29 04:30N 35°21' E 139°51'0 0.0
2018-Jul-29 04:00N 35°21' E 139°51'0 0.1
2018-Jul-29 03:31N 35°21' E 139°51'0 0.1
2018-Jul-29 03:00N 35°21' E 139°51'0 0.0
2018-Jul-29 02:30N 35°21' E 139°51'0 0.0
2018-Jul-29 02:01N 35°21' E 139°51'0 0.0
2018-Jul-29 01:30N 35°21' E 139°51'0 0.0
2018-Jul-29 01:00N 35°21' E 139°51'0 0.0
2018-Jul-29 00:30N 35°21' E 139°51'0 0.0
2018-Jul-29 00:00N 35°21' E 139°51'0 0.0
2018-Jul-28 23:30N 35°21' E 139°51'0 0.0
2018-Jul-28 23:00N 35°21' E 139°51'0 0.0
2018-Jul-28 22:30N 35°21' E 139°51'0 0.0
2018-Jul-28 22:00N 35°21' E 139°51'0 0.0
2018-Jul-28 21:30N 35°21' E 139°51'0 0.0
2018-Jul-28 21:00N 35°21' E 139°51'0 0.1
2018-Jul-28 20:30N 35°21' E 139°51'0 0.1
2018-Jul-28 20:00N 35°21' E 139°51'0 0.0
2018-Jul-28 19:30N 35°21' E 139°51'0 0.0
2018-Jul-28 19:00N 35°21' E 139°51'0 0.0
2018-Jul-28 18:30N 35°21' E 139°51'0 0.0
2018-Jul-28 18:00N 35°21' E 139°51'0 0.0
2018-Jul-28 17:30N 35°21' E 139°51'0 0.0
2018-Jul-28 17:00N 35°21' E 139°51'0 0.0
2018-Jul-28 16:30N 35°21' E 139°51'0 0.0
2018-Jul-28 16:00N 35°21' E 139°51'0 0.0
2018-Jul-28 15:30N 35°21' E 139°51'0 0.0
2018-Jul-28 15:01N 35°21' E 139°51'0 0.0
2018-Jul-28 14:30N 35°21' E 139°51'0 0.0
2018-Jul-28 14:00N 35°21' E 139°51'0 0.0
2018-Jul-28 13:30N 35°21' E 139°51'0 0.1
2018-Jul-28 13:00N 35°21' E 139°51'0 0.0
2018-Jul-28 12:31N 35°21' E 139°51'0 0.1
2018-Jul-28 12:00N 35°21' E 139°51'0 0.0
2018-Jul-28 11:30N 35°21' E 139°51'0 0.0
2018-Jul-28 11:00N 35°21' E 139°51'0 0.0
2018-Jul-28 10:30N 35°21' E 139°51'0 0.0
2018-Jul-28 10:01N 35°21' E 139°51'0 0.0
2018-Jul-28 09:30N 35°21' E 139°51'0 0.0
2018-Jul-28 09:01N 35°21' E 139°51'0 0.0
2018-Jul-28 08:30N 35°21' E 139°51'0 0.0
2018-Jul-28 08:00N 35°21' E 139°51'0 0.0
2018-Jul-28 07:30N 35°21' E 139°51'0 0.0
2018-Jul-28 07:00N 35°21' E 139°51'0 0.0
2018-Jul-28 06:30N 35°21' E 139°51'0 0.0
2018-Jul-28 06:00N 35°21' E 139°51'0 0.0
2018-Jul-28 05:30N 35°21' E 139°51'0 0.0
2018-Jul-28 05:00N 35°21' E 139°51'0 0.0
2018-Jul-28 04:30N 35°21' E 139°51'0 0.0
2018-Jul-28 04:00N 35°21' E 139°51'0 0.1
2018-Jul-28 03:30N 35°21' E 139°51'0 0.1
2018-Jul-28 03:00N 35°21' E 139°51'0 0.0
2018-Jul-28 02:30N 35°21' E 139°51'0 0.0
2018-Jul-28 02:00N 35°21' E 139°51'0 0.0
2018-Jul-28 01:30N 35°21' E 139°51'0 0.0
2018-Jul-28 01:00N 35°21' E 139°51'0 0.0
2018-Jul-28 00:30N 35°21' E 139°51'0 0.0
2018-Jul-28 00:00N 35°21' E 139°51'0 0.0
2018-Jul-27 23:30N 35°21' E 139°51'0 0.0
2018-Jul-27 23:00N 35°21' E 139°51'0 0.0
2018-Jul-27 22:30N 35°21' E 139°51'0 0.0
2018-Jul-27 22:00N 35°21' E 139°51'0 0.0
2018-Jul-27 21:30N 35°21' E 139°51'0 0.0
2018-Jul-27 21:00N 35°21' E 139°51'0 0.0
2018-Jul-27 20:30N 35°21' E 139°51'0 0.0
2018-Jul-27 20:00N 35°21' E 139°51'0 0.0
2018-Jul-27 19:30N 35°21' E 139°51'0 0.0
2018-Jul-27 19:00N 35°21' E 139°51'0 0.0
2018-Jul-27 18:30N 35°21' E 139°51'0 0.0
2018-Jul-27 18:00N 35°21' E 139°51'0 0.0
2018-Jul-27 17:30N 35°21' E 139°51'0 0.0
2018-Jul-27 17:00N 35°21' E 139°51'0 0.0
2018-Jul-27 16:30N 35°21' E 139°51'0 0.0
2018-Jul-27 16:00N 35°21' E 139°51'0 0.0
2018-Jul-27 15:30N 35°21' E 139°51'0 0.0
2018-Jul-27 15:00N 35°21' E 139°51'0 0.0
2018-Jul-27 14:30N 35°21' E 139°51'0 0.0
2018-Jul-27 14:00N 35°21' E 139°51'0 0.0
2018-Jul-27 13:30N 35°21' E 139°51'0 0.1
2018-Jul-27 13:00N 35°21' E 139°51'0 0.1
2018-Jul-27 12:30N 35°21' E 139°51'0 0.0
2018-Jul-27 12:00N 35°21' E 139°51'0 0.0
2018-Jul-27 11:30N 35°21' E 139°51'0 0.0
2018-Jul-27 11:00N 35°21' E 139°51'0 0.0
2018-Jul-27 10:30N 35°21' E 139°51'0 0.0
2018-Jul-27 10:00N 35°21' E 139°51'0 0.0
2018-Jul-27 09:30N 35°21' E 139°51'0 0.0
2018-Jul-27 09:01N 35°21' E 139°51'0 0.0
2018-Jul-27 08:30N 35°21' E 139°51'0 0.0
2018-Jul-27 08:00N 35°21' E 139°51'0 0.0
2018-Jul-27 07:30N 35°21' E 139°51'0 0.0
2018-Jul-27 07:00N 35°21' E 139°51'0 0.0
2018-Jul-27 06:30N 35°21' E 139°51'0 0.0
2018-Jul-27 06:01N 35°21' E 139°51'0 0.0
2018-Jul-27 05:30N 35°21' E 139°51'0 0.0
2018-Jul-27 05:00N 35°21' E 139°51'0 0.0
2018-Jul-27 04:30N 35°21' E 139°51'0 0.0
2018-Jul-27 04:00N 35°21' E 139°51'0 0.1
2018-Jul-27 03:30N 35°21' E 139°51'0 0.1
2018-Jul-27 03:00N 35°21' E 139°51'0 0.0
2018-Jul-27 02:30N 35°21' E 139°51'0 0.0
2018-Jul-27 02:00N 35°21' E 139°51'0 0.0
2018-Jul-27 01:30N 35°21' E 139°51'0 0.0
2018-Jul-27 01:00N 35°21' E 139°51'0 0.0
2018-Jul-27 00:30N 35°21' E 139°51'0 0.0
2018-Jul-27 00:00N 35°21' E 139°51'0 0.0
2018-Jul-26 23:30N 35°21' E 139°51'0 0.0
2018-Jul-26 23:00N 35°21' E 139°51'0 0.0
2018-Jul-26 22:30N 35°21' E 139°51'0 0.0
2018-Jul-26 22:00N 35°21' E 139°51'0 0.0
2018-Jul-26 21:30N 35°21' E 139°51'0 0.0
2018-Jul-26 21:00N 35°21' E 139°51'0 0.0
2018-Jul-26 20:30N 35°21' E 139°51'0 0.0
2018-Jul-26 20:00N 35°21' E 139°51'0 0.0
2018-Jul-26 19:31N 35°21' E 139°51'0 0.0
2018-Jul-26 19:01N 35°21' E 139°51'0 0.0
2018-Jul-26 18:30N 35°21' E 139°51'0 0.0
2018-Jul-26 18:00N 35°21' E 139°51'0 0.0
2018-Jul-26 17:30N 35°21' E 139°51'0 0.0
2018-Jul-26 17:00N 35°21' E 139°51'0 0.0
2018-Jul-26 16:30N 35°21' E 139°51'0 0.0
2018-Jul-26 16:00N 35°21' E 139°51'0 0.0
2018-Jul-26 15:30N 35°21' E 139°51'0 0.1
2018-Jul-26 15:00N 35°21' E 139°51'0 0.1
2018-Jul-26 14:30N 35°21' E 139°51'0 0.0
2018-Jul-26 14:00N 35°21' E 139°51'0 0.0
2018-Jul-26 13:30N 35°21' E 139°51'0 0.1
2018-Jul-26 13:00N 35°21' E 139°51'0 0.1
2018-Jul-26 12:30N 35°21' E 139°51'0 0.0
2018-Jul-26 12:00N 35°21' E 139°51'0 0.0
2018-Jul-26 11:30N 35°21' E 139°51'0 0.0
2018-Jul-26 11:00N 35°21' E 139°51'0 0.0
2018-Jul-26 10:30N 35°21' E 139°51'0 0.0
2018-Jul-26 10:01N 35°21' E 139°51'0 0.0
2018-Jul-26 09:30N 35°21' E 139°51'0 0.0
2018-Jul-26 09:00N 35°21' E 139°51'0 0.0
2018-Jul-26 08:30N 35°21' E 139°51'0 0.0
2018-Jul-26 08:00N 35°21' E 139°51'0 0.0
2018-Jul-26 07:30N 35°21' E 139°51'0 0.0
2018-Jul-26 07:00N 35°21' E 139°51'0 0.1
2018-Jul-26 06:30N 35°21' E 139°51'0 0.1
2018-Jul-26 06:00N 35°21' E 139°51'0 0.0
2018-Jul-26 05:30N 35°21' E 139°51'0 0.0
2018-Jul-26 05:00N 35°21' E 139°51'0 0.0
2018-Jul-26 04:30N 35°21' E 139°51'0 0.0
2018-Jul-26 04:00N 35°21' E 139°51'0 0.0
2018-Jul-26 03:30N 35°21' E 139°51'0 0.0
2018-Jul-26 03:00N 35°21' E 139°51'0 0.0
2018-Jul-26 02:30N 35°21' E 139°51'0 0.0
2018-Jul-26 02:00N 35°21' E 139°51'0 0.0
2018-Jul-26 01:30N 35°21' E 139°51'0 0.0
2018-Jul-26 01:00N 35°21' E 139°51'0 0.1
2018-Jul-26 00:30N 35°21' E 139°51'0 0.1
2018-Jul-26 00:00N 35°21' E 139°51'0 0.0
2018-Jul-25 23:30N 35°21' E 139°51'0 0.0
2018-Jul-25 23:00N 35°21' E 139°51'0 0.0
2018-Jul-25 22:30N 35°21' E 139°51'0 0.0
2018-Jul-25 22:00N 35°21' E 139°51'0 0.0
2018-Jul-25 21:30N 35°21' E 139°51'0 0.0
2018-Jul-25 21:00N 35°21' E 139°51'0 0.0
2018-Jul-25 20:31N 35°21' E 139°51'0 0.0
2018-Jul-25 20:00N 35°21' E 139°51'0 0.0
2018-Jul-25 19:30N 35°21' E 139°51'0 0.0
2018-Jul-25 19:00N 35°21' E 139°51'0 0.0
2018-Jul-25 18:30N 35°21' E 139°51'0 0.0
2018-Jul-25 18:00N 35°21' E 139°51'0 0.0
2018-Jul-25 17:30N 35°21' E 139°51'0 0.0
2018-Jul-25 17:00N 35°21' E 139°51'0 0.0
2018-Jul-25 16:30N 35°21' E 139°51'0 0.0
2018-Jul-25 16:00N 35°21' E 139°51'0 0.0
2018-Jul-25 15:30N 35°21' E 139°51'0 0.1
2018-Jul-25 15:00N 35°21' E 139°51'0 0.1
2018-Jul-25 14:30N 35°21' E 139°51'0 0.0
2018-Jul-25 14:01N 35°21' E 139°51'0 0.0
2018-Jul-25 13:30N 35°21' E 139°51'0 0.1
2018-Jul-25 13:00N 35°21' E 139°51'0 0.1
2018-Jul-25 12:30N 35°21' E 139°51'0 0.0
2018-Jul-25 12:00N 35°21' E 139°51'0 0.0
2018-Jul-25 11:30N 35°21' E 139°51'0 0.0
2018-Jul-25 11:00N 35°21' E 139°51'0 0.0
2018-Jul-25 10:30N 35°21' E 139°51'0 0.0
2018-Jul-25 10:00N 35°21' E 139°51'0 0.0
2018-Jul-25 09:30N 35°21' E 139°51'0 0.0
2018-Jul-25 09:00N 35°21' E 139°51'0 0.0
2018-Jul-25 08:30N 35°21' E 139°51'0 0.0
2018-Jul-25 08:00N 35°21' E 139°51'0 0.0
2018-Jul-25 07:31N 35°21' E 139°51'0 0.0
2018-Jul-25 07:00N 35°21' E 139°51'0 0.0
2018-Jul-25 06:30N 35°21' E 139°51'0 0.0
2018-Jul-25 06:00N 35°21' E 139°51'0 0.0
2018-Jul-25 05:30N 35°21' E 139°51'0 0.0
2018-Jul-25 05:00N 35°21' E 139°51'0 0.0
2018-Jul-25 04:30N 35°21' E 139°51'0 0.0
2018-Jul-25 04:00N 35°21' E 139°51'0 0.1
2018-Jul-25 03:30N 35°21' E 139°51'0 0.1
2018-Jul-25 03:01N 35°21' E 139°51'0 0.0
2018-Jul-25 02:30N 35°21' E 139°51'0 0.0
2018-Jul-25 02:00N 35°21' E 139°51'0 0.0
2018-Jul-25 01:30N 35°21' E 139°51'0 0.0
2018-Jul-25 01:00N 35°21' E 139°51'0 0.1
2018-Jul-25 00:31N 35°21' E 139°51'0 0.1
2018-Jul-25 00:00N 35°21' E 139°51'0 0.0
2018-Jul-24 23:30N 35°21' E 139°51'0 0.0
2018-Jul-24 23:00N 35°21' E 139°51'0 0.0
2018-Jul-24 22:30N 35°21' E 139°51'0 0.0
2018-Jul-24 22:00N 35°21' E 139°51'0 0.0
2018-Jul-24 21:30N 35°21' E 139°51'0 0.0
2018-Jul-24 21:00N 35°21' E 139°51'0 0.0
2018-Jul-24 20:30N 35°21' E 139°51'0 0.0
2018-Jul-24 20:00N 35°21' E 139°51'0 0.0
2018-Jul-24 19:30N 35°21' E 139°51'0 0.0
2018-Jul-24 19:00N 35°21' E 139°51'0 0.0
2018-Jul-24 18:30N 35°21' E 139°51'0 0.0
2018-Jul-24 18:00N 35°21' E 139°51'0 0.0
2018-Jul-24 17:30N 35°21' E 139°51'0 0.0
2018-Jul-24 17:00N 35°21' E 139°51'0 0.0
2018-Jul-24 16:31N 35°21' E 139°51'0 0.0
2018-Jul-24 16:00N 35°21' E 139°51'0 0.0
2018-Jul-24 15:30N 35°21' E 139°51'0 0.0
2018-Jul-24 14:31N 35°21' E 139°51'0 0.0
2018-Jul-24 14:00N 35°21' E 139°51'0 0.0
2018-Jul-24 13:30N 35°21' E 139°51'0 0.1
2018-Jul-24 13:00N 35°21' E 139°51'0 0.1
2018-Jul-24 12:30N 35°21' E 139°51'0 0.0
2018-Jul-24 12:00N 35°21' E 139°51'0 0.0
2018-Jul-24 11:30N 35°21' E 139°51'0 0.0
2018-Jul-24 11:01N 35°21' E 139°51'0 0.0
2018-Jul-24 10:30N 35°21' E 139°51'0 0.0
2018-Jul-24 10:00N 35°21' E 139°51'0 0.0
2018-Jul-24 09:30N 35°21' E 139°51'0 0.0
2018-Jul-24 09:01N 35°21' E 139°51'0 0.0
2018-Jul-24 08:30N 35°21' E 139°51'0 0.0
2018-Jul-24 08:00N 35°21' E 139°51'0 0.0
2018-Jul-24 07:30N 35°21' E 139°51'0 0.0
2018-Jul-24 07:00N 35°21' E 139°51'0 0.0
2018-Jul-24 06:30N 35°21' E 139°51'0 0.0
2018-Jul-24 06:00N 35°21' E 139°51'0 0.0
2018-Jul-24 05:30N 35°21' E 139°51'0 0.0
2018-Jul-24 05:01N 35°21' E 139°51'0 0.0
2018-Jul-24 04:30N 35°21' E 139°51'0 0.1
2018-Jul-24 04:00N 35°21' E 139°51'0 0.0
2018-Jul-24 03:30N 35°21' E 139°51'0 0.1
2018-Jul-24 03:00N 35°21' E 139°51'0 0.0
2018-Jul-24 02:30N 35°21' E 139°51'0 0.0
2018-Jul-24 02:00N 35°21' E 139°51'0 0.0
2018-Jul-24 01:30N 35°21' E 139°51'0 0.0
2018-Jul-24 01:00N 35°21' E 139°51'0 0.0
2018-Jul-24 00:30N 35°21' E 139°51'0 0.0
2018-Jul-24 00:00N 35°21' E 139°51'0 0.0
2018-Jul-23 23:30N 35°21' E 139°51'0 0.0
2018-Jul-23 23:01N 35°21' E 139°51'0 0.0
2018-Jul-23 22:30N 35°21' E 139°51'0 0.0
2018-Jul-23 22:00N 35°21' E 139°51'0 0.0
2018-Jul-23 21:30N 35°21' E 139°51'0 0.0
2018-Jul-23 21:00N 35°21' E 139°51'0 0.0
2018-Jul-23 20:00N 35°21' E 139°51'0 0.0
2018-Jul-23 19:30N 35°21' E 139°51'0 0.0
2018-Jul-23 19:00N 35°21' E 139°51'0 0.0
2018-Jul-23 18:30N 35°21' E 139°51'0 0.0
2018-Jul-23 18:00N 35°21' E 139°51'0 0.0
2018-Jul-23 17:30N 35°21' E 139°51'0 0.0
2018-Jul-23 17:00N 35°21' E 139°51'0 0.0
2018-Jul-23 16:30N 35°21' E 139°51'0 0.0
2018-Jul-23 16:00N 35°21' E 139°51'0 0.0
2018-Jul-23 15:30N 35°21' E 139°51'0 0.1
2018-Jul-23 15:00N 35°21' E 139°51'0 0.1
2018-Jul-23 14:30N 35°21' E 139°51'0 0.0
2018-Jul-23 14:00N 35°21' E 139°51'0 0.0
2018-Jul-23 13:30N 35°21' E 139°51'0 0.1
2018-Jul-23 13:00N 35°21' E 139°51'0 0.1
2018-Jul-23 12:29N 35°21' E 139°51'0 0.0
2018-Jul-23 12:00N 35°21' E 139°51'0 0.0
2018-Jul-23 11:30N 35°21' E 139°51'0 0.0
2018-Jul-23 11:00N 35°21' E 139°51'0 0.0
2018-Jul-23 10:30N 35°21' E 139°51'0 0.0
2018-Jul-23 10:01N 35°21' E 139°51'0 0.0
2018-Jul-23 09:30N 35°21' E 139°51'0 0.0
2018-Jul-23 09:00N 35°21' E 139°51'0 0.0
2018-Jul-23 08:31N 35°21' E 139°51'0 0.0
2018-Jul-23 08:00N 35°21' E 139°51'0 0.0
2018-Jul-23 07:30N 35°21' E 139°51'0 0.0
2018-Jul-23 07:00N 35°21' E 139°51'0 0.1
2018-Jul-23 06:30N 35°21' E 139°51'0 0.1
2018-Jul-23 06:00N 35°21' E 139°51'0 0.0
2018-Jul-23 05:30N 35°21' E 139°51'0 0.0
2018-Jul-23 05:00N 35°21' E 139°51'0 0.0
2018-Jul-23 04:30N 35°21' E 139°51'0 0.1
2018-Jul-23 04:00N 35°21' E 139°51'0 0.1
2018-Jul-23 03:30N 35°21' E 139°51'0 0.0
2018-Jul-23 03:00N 35°21' E 139°51'0 0.0
2018-Jul-23 02:31N 35°21' E 139°51'0 0.0
2018-Jul-23 02:00N 35°21' E 139°51'0 0.0
2018-Jul-23 01:30N 35°21' E 139°51'0 0.0
2018-Jul-23 01:00N 35°21' E 139°51'0 0.0
2018-Jul-23 00:30N 35°21' E 139°51'0 0.0
2018-Jul-23 00:00N 35°21' E 139°51'0 0.0
2018-Jul-22 23:30N 35°21' E 139°51'0 0.0
2018-Jul-22 23:00N 35°21' E 139°51'0 0.0
2018-Jul-22 22:30N 35°21' E 139°51'0 0.9
2018-Jul-22 22:00N 35°22' E 139°51'0 0.1
2018-Jul-22 21:30N 35°22' E 139°51'0 0.0
2018-Jul-22 21:00N 35°22' E 139°51'0 0.0
2018-Jul-22 20:30N 35°22' E 139°51'0 0.0
2018-Jul-22 20:00N 35°22' E 139°51'0 0.0
2018-Jul-22 19:30N 35°22' E 139°51'0 0.0
2018-Jul-22 19:00N 35°22' E 139°51'0 0.0
2018-Jul-22 18:30N 35°22' E 139°51'0 0.0
2018-Jul-22 18:00N 35°22' E 139°51'0 0.0
2018-Jul-22 17:30N 35°22' E 139°51'0 0.0
2018-Jul-22 17:00N 35°22' E 139°51'0 0.0
2018-Jul-22 16:30N 35°22' E 139°51'0 0.0
2018-Jul-22 16:00N 35°22' E 139°51'0 0.0
2018-Jul-22 15:00N 35°22' E 139°51'0 0.0
2018-Jul-22 14:30N 35°22' E 139°51'0 0.0
2018-Jul-22 14:00N 35°22' E 139°51'0 0.0
2018-Jul-22 13:30N 35°22' E 139°51'0 0.0
2018-Jul-22 13:00N 35°22' E 139°51'0 0.0
2018-Jul-22 12:30N 35°22' E 139°51'0 0.0
2018-Jul-22 11:51N 35°22' E 139°51'0 0.0
2018-Jul-22 11:30N 35°22' E 139°51'0 0.0
2018-Jul-22 11:00N 35°22' E 139°51'0 0.0
2018-Jul-22 10:30N 35°22' E 139°51'0 0.0
2018-Jul-22 10:00N 35°22' E 139°51'0 0.0
2018-Jul-22 09:29N 35°22' E 139°51'0 0.0
2018-Jul-22 08:59N 35°22' E 139°51'0 0.0
2018-Jul-22 08:26N 35°22' E 139°51'0 0.0
2018-Jul-22 07:56N 35°22' E 139°51'0 0.0
2018-Jul-22 07:29N 35°22' E 139°51'0 0.0
2018-Jul-22 06:59N 35°22' E 139°51'0 0.0
2018-Jul-22 06:29N 35°22' E 139°51'0 0.0
2018-Jul-22 05:59N 35°22' E 139°51'0 0.0
2018-Jul-22 05:29N 35°22' E 139°51'0 0.0
2018-Jul-22 04:59N 35°22' E 139°51'0 0.0
2018-Jul-22 04:29N 35°22' E 139°51'0 0.0
2018-Jul-22 03:59N 35°22' E 139°51'0 0.0
2018-Jul-22 03:29N 35°22' E 139°51'0 0.0
2018-Jul-22 02:59N 35°22' E 139°51'0 0.0
2018-Jul-22 02:29N 35°22' E 139°51'0 0.0
2018-Jul-22 01:59N 35°22' E 139°51'0 0.0
2018-Jul-22 01:29N 35°22' E 139°51'0 0.0
2018-Jul-22 00:56N 35°22' E 139°51'0 0.0
2018-Jul-22 00:29N 35°22' E 139°51'0 0.0
2018-Jul-21 23:59N 35°22' E 139°51'0 0.0
2018-Jul-21 23:29N 35°22' E 139°51'0 0.0
2018-Jul-21 22:59N 35°22' E 139°51'0 0.0
2018-Jul-21 22:29N 35°22' E 139°51'0 0.0
2018-Jul-21 21:59N 35°22' E 139°51'0 0.0
2018-Jul-21 21:23N 35°22' E 139°51'0 0.0
2018-Jul-21 20:59N 35°22' E 139°51'0 0.0
2018-Jul-21 20:29N 35°22' E 139°51'0 0.0
2018-Jul-21 19:59N 35°22' E 139°51'0 0.0
2018-Jul-21 19:29N 35°22' E 139°51'0 0.0
2018-Jul-21 18:59N 35°22' E 139°51'0 0.0
2018-Jul-21 18:29N 35°22' E 139°51'0 0.0
2018-Jul-21 17:59N 35°22' E 139°51'0 0.0
2018-Jul-21 17:29N 35°22' E 139°51'0 0.0
2018-Jul-21 16:59N 35°22' E 139°51'0 0.0
2018-Jul-21 16:29N 35°22' E 139°51'0 0.0
2018-Jul-21 15:59N 35°22' E 139°51'0 0.0
2018-Jul-21 15:29N 35°22' E 139°51'0 0.0
2018-Jul-21 14:59N 35°22' E 139°51'0 0.0
2018-Jul-21 14:29N 35°22' E 139°51'0 0.0
2018-Jul-21 13:29N 35°22' E 139°51'0 0.0
2018-Jul-21 12:59N 35°22' E 139°51'0 0.0
2018-Jul-21 12:29N 35°22' E 139°51'0 0.0
2018-Jul-21 11:59N 35°22' E 139°51'0 0.0
2018-Jul-21 11:29N 35°22' E 139°51'0 0.0
2018-Jul-21 10:59N 35°22' E 139°51'  

Dump ship's entire track history